sensor_id;sensor_type;location;lat;lon;timestamp;P1;durP1;ratioP1;P2;durP2;ratioP2
41343;SDS011;27089;50.022;7.604;2023-04-01T00:00:33;1.93;;;0.80;;
41343;SDS011;27089;50.022;7.604;2023-04-01T00:03:00;8.33;;;1.10;;
41343;SDS011;27089;50.022;7.604;2023-04-01T00:05:27;3.27;;;0.97;;
41343;SDS011;27089;50.022;7.604;2023-04-01T00:07:54;4.77;;;1.10;;
41343;SDS011;27089;50.022;7.604;2023-04-01T00:10:21;4.43;;;0.90;;
41343;SDS011;27089;50.022;7.604;2023-04-01T00:12:49;3.27;;;0.90;;
41343;SDS011;27089;50.022;7.604;2023-04-01T00:15:16;4.03;;;1.00;;
41343;SDS011;27089;50.022;7.604;2023-04-01T00:17:43;5.20;;;0.90;;
41343;SDS011;27089;50.022;7.604;2023-04-01T00:20:11;3.73;;;0.90;;
41343;SDS011;27089;50.022;7.604;2023-04-01T00:22:39;6.27;;;1.33;;
41343;SDS011;27089;50.022;7.604;2023-04-01T00:25:06;3.80;;;0.90;;
41343;SDS011;27089;50.022;7.604;2023-04-01T00:27:34;4.70;;;1.00;;
41343;SDS011;27089;50.022;7.604;2023-04-01T00:30:02;3.30;;;0.80;;
41343;SDS011;27089;50.022;7.604;2023-04-01T00:32:30;6.33;;;1.10;;
41343;SDS011;27089;50.022;7.604;2023-04-01T00:34:57;3.00;;;0.97;;
41343;SDS011;27089;50.022;7.604;2023-04-01T00:37:25;4.10;;;1.10;;
41343;SDS011;27089;50.022;7.604;2023-04-01T00:39:52;4.37;;;1.00;;
41343;SDS011;27089;50.022;7.604;2023-04-01T00:42:19;4.73;;;1.07;;
41343;SDS011;27089;50.022;7.604;2023-04-01T00:44:47;4.33;;;0.90;;
41343;SDS011;27089;50.022;7.604;2023-04-01T00:47:18;4.30;;;1.03;;
41343;SDS011;27089;50.022;7.604;2023-04-01T00:49:47;1.90;;;0.90;;
41343;SDS011;27089;50.022;7.604;2023-04-01T00:52:17;3.00;;;0.87;;
41343;SDS011;27089;50.022;7.604;2023-04-01T00:54:47;5.73;;;1.10;;
41343;SDS011;27089;50.022;7.604;2023-04-01T00:57:18;2.60;;;0.90;;
41343;SDS011;27089;50.022;7.604;2023-04-01T00:59:50;3.17;;;1.17;;
41343;SDS011;27089;50.022;7.604;2023-04-01T01:02:21;1.83;;;0.73;;
41343;SDS011;27089;50.022;7.604;2023-04-01T01:04:49;1.57;;;0.90;;
41343;SDS011;27089;50.022;7.604;2023-04-01T01:07:19;3.57;;;0.87;;
41343;SDS011;27089;50.022;7.604;2023-04-01T01:09:56;6.43;;;1.00;;
41343;SDS011;27089;50.022;7.604;2023-04-01T01:12:30;2.83;;;0.60;;
41343;SDS011;27089;50.022;7.604;2023-04-01T01:15:06;2.77;;;1.07;;
41343;SDS011;27089;50.022;7.604;2023-04-01T01:17:44;3.30;;;0.60;;
41343;SDS011;27089;50.022;7.604;2023-04-01T01:20:28;2.60;;;0.90;;
41343;SDS011;27089;50.022;7.604;2023-04-01T01:23:21;2.67;;;0.60;;
41343;SDS011;27089;50.022;7.604;2023-04-01T01:26:11;3.10;;;0.70;;
41343;SDS011;27089;50.022;7.604;2023-04-01T01:28:55;3.10;;;0.67;;
41343;SDS011;27089;50.022;7.604;2023-04-01T01:31:33;2.00;;;0.73;;
41343;SDS011;27089;50.022;7.604;2023-04-01T01:34:07;3.03;;;0.70;;
41343;SDS011;27089;50.022;7.604;2023-04-01T01:36:47;2.57;;;0.80;;
41343;SDS011;27089;50.022;7.604;2023-04-01T01:39:18;2.27;;;0.90;;
41343;SDS011;27089;50.022;7.604;2023-04-01T01:41:51;3.67;;;1.03;;
41343;SDS011;27089;50.022;7.604;2023-04-01T01:44:19;1.13;;;0.70;;
41343;SDS011;27089;50.022;7.604;2023-04-01T01:46:49;2.63;;;0.80;;
41343;SDS011;27089;50.022;7.604;2023-04-01T01:49:16;2.40;;;0.90;;
41343;SDS011;27089;50.022;7.604;2023-04-01T01:51:46;4.67;;;0.80;;
41343;SDS011;27089;50.022;7.604;2023-04-01T01:54:13;2.73;;;1.00;;
41343;SDS011;27089;50.022;7.604;2023-04-01T01:56:42;3.50;;;1.27;;
41343;SDS011;27089;50.022;7.604;2023-04-01T01:59:14;3.30;;;0.87;;
41343;SDS011;27089;50.022;7.604;2023-04-01T02:01:45;2.57;;;0.80;;
41343;SDS011;27089;50.022;7.604;2023-04-01T02:04:15;5.77;;;1.27;;
41343;SDS011;27089;50.022;7.604;2023-04-01T02:06:45;3.90;;;0.80;;
41343;SDS011;27089;50.022;7.604;2023-04-01T02:09:19;2.87;;;0.80;;
41343;SDS011;27089;50.022;7.604;2023-04-01T02:11:47;4.27;;;0.93;;
41343;SDS011;27089;50.022;7.604;2023-04-01T02:14:19;2.07;;;1.00;;
41343;SDS011;27089;50.022;7.604;2023-04-01T02:16:49;2.83;;;0.67;;
41343;SDS011;27089;50.022;7.604;2023-04-01T02:19:21;3.23;;;0.90;;
41343;SDS011;27089;50.022;7.604;2023-04-01T02:21:55;4.27;;;1.10;;
41343;SDS011;27089;50.022;7.604;2023-04-01T02:24:26;3.80;;;0.97;;
41343;SDS011;27089;50.022;7.604;2023-04-01T02:26:56;3.10;;;1.00;;
41343;SDS011;27089;50.022;7.604;2023-04-01T02:29:23;2.43;;;0.90;;
41343;SDS011;27089;50.022;7.604;2023-04-01T02:31:51;4.87;;;0.90;;
41343;SDS011;27089;50.022;7.604;2023-04-01T02:34:20;2.97;;;1.07;;
41343;SDS011;27089;50.022;7.604;2023-04-01T02:36:49;2.90;;;0.77;;
41343;SDS011;27089;50.022;7.604;2023-04-01T02:39:18;3.27;;;0.90;;
41343;SDS011;27089;50.022;7.604;2023-04-01T02:41:45;4.27;;;0.90;;
41343;SDS011;27089;50.022;7.604;2023-04-01T02:44:13;6.07;;;0.87;;
41343;SDS011;27089;50.022;7.604;2023-04-01T02:46:41;4.97;;;1.10;;
41343;SDS011;27089;50.022;7.604;2023-04-01T02:49:08;3.00;;;0.80;;
41343;SDS011;27089;50.022;7.604;2023-04-01T02:51:35;8.50;;;1.10;;
41343;SDS011;27089;50.022;7.604;2023-04-01T02:54:03;3.50;;;1.13;;
41343;SDS011;27089;50.022;7.604;2023-04-01T02:56:31;2.20;;;0.70;;
41343;SDS011;27089;50.022;7.604;2023-04-01T02:58:58;4.07;;;0.87;;
41343;SDS011;27089;50.022;7.604;2023-04-01T03:01:25;4.20;;;0.60;;
41343;SDS011;27089;50.022;7.604;2023-04-01T03:03:52;2.03;;;0.73;;
41343;SDS011;27089;50.022;7.604;2023-04-01T03:06:19;5.30;;;1.00;;
41343;SDS011;27089;50.022;7.604;2023-04-01T03:08:46;4.57;;;0.97;;
41343;SDS011;27089;50.022;7.604;2023-04-01T03:11:13;3.73;;;0.70;;
41343;SDS011;27089;50.022;7.604;2023-04-01T03:13:41;4.47;;;0.80;;
41343;SDS011;27089;50.022;7.604;2023-04-01T03:16:08;3.57;;;0.90;;
41343;SDS011;27089;50.022;7.604;2023-04-01T03:18:35;1.83;;;0.80;;
41343;SDS011;27089;50.022;7.604;2023-04-01T03:21:12;2.87;;;0.67;;
41343;SDS011;27089;50.022;7.604;2023-04-01T03:23:40;2.77;;;0.67;;
41343;SDS011;27089;50.022;7.604;2023-04-01T03:26:07;3.40;;;0.73;;
41343;SDS011;27089;50.022;7.604;2023-04-01T03:28:34;5.53;;;0.80;;
41343;SDS011;27089;50.022;7.604;2023-04-01T03:31:02;5.17;;;0.80;;
41343;SDS011;27089;50.022;7.604;2023-04-01T03:33:30;2.43;;;1.03;;
41343;SDS011;27089;50.022;7.604;2023-04-01T03:35:57;1.13;;;0.60;;
41343;SDS011;27089;50.022;7.604;2023-04-01T03:38:24;3.30;;;0.57;;
41343;SDS011;27089;50.022;7.604;2023-04-01T03:40:51;1.97;;;0.50;;
41343;SDS011;27089;50.022;7.604;2023-04-01T03:43:18;5.03;;;1.07;;
41343;SDS011;27089;50.022;7.604;2023-04-01T03:45:45;2.07;;;0.50;;
41343;SDS011;27089;50.022;7.604;2023-04-01T03:48:14;2.97;;;0.50;;
41343;SDS011;27089;50.022;7.604;2023-04-01T03:50:41;1.80;;;0.60;;
41343;SDS011;27089;50.022;7.604;2023-04-01T03:53:08;0.93;;;0.40;;
41343;SDS011;27089;50.022;7.604;2023-04-01T03:55:36;1.57;;;0.63;;
41343;SDS011;27089;50.022;7.604;2023-04-01T03:58:05;1.03;;;0.63;;
41343;SDS011;27089;50.022;7.604;2023-04-01T04:00:33;1.90;;;0.50;;
41343;SDS011;27089;50.022;7.604;2023-04-01T04:03:00;2.77;;;0.50;;
41343;SDS011;27089;50.022;7.604;2023-04-01T04:05:29;2.57;;;0.33;;
41343;SDS011;27089;50.022;7.604;2023-04-01T04:07:57;1.93;;;0.60;;
41343;SDS011;27089;50.022;7.604;2023-04-01T04:10:24;2.07;;;0.50;;
41343;SDS011;27089;50.022;7.604;2023-04-01T04:12:51;1.83;;;0.53;;
41343;SDS011;27089;50.022;7.604;2023-04-01T04:15:18;2.60;;;0.30;;
41343;SDS011;27089;50.022;7.604;2023-04-01T04:17:45;1.53;;;0.50;;
41343;SDS011;27089;50.022;7.604;2023-04-01T04:20:12;1.33;;;0.40;;
41343;SDS011;27089;50.022;7.604;2023-04-01T04:22:41;2.37;;;0.67;;
41343;SDS011;27089;50.022;7.604;2023-04-01T04:25:08;1.80;;;0.30;;
41343;SDS011;27089;50.022;7.604;2023-04-01T04:27:35;1.60;;;0.40;;
41343;SDS011;27089;50.022;7.604;2023-04-01T04:30:02;4.13;;;1.10;;
41343;SDS011;27089;50.022;7.604;2023-04-01T04:32:31;1.13;;;0.40;;
41343;SDS011;27089;50.022;7.604;2023-04-01T04:34:58;1.40;;;0.50;;
41343;SDS011;27089;50.022;7.604;2023-04-01T04:37:25;2.33;;;0.50;;
41343;SDS011;27089;50.022;7.604;2023-04-01T04:39:53;1.47;;;0.40;;
41343;SDS011;27089;50.022;7.604;2023-04-01T04:42:20;0.57;;;0.30;;
41343;SDS011;27089;50.022;7.604;2023-04-01T04:44:47;0.50;;;0.50;;
41343;SDS011;27089;50.022;7.604;2023-04-01T04:47:14;0.90;;;0.40;;
41343;SDS011;27089;50.022;7.604;2023-04-01T04:49:41;1.37;;;0.50;;
41343;SDS011;27089;50.022;7.604;2023-04-01T04:52:08;0.60;;;0.30;;
41343;SDS011;27089;50.022;7.604;2023-04-01T04:54:35;1.07;;;0.40;;
41343;SDS011;27089;50.022;7.604;2023-04-01T04:57:03;0.67;;;0.30;;
41343;SDS011;27089;50.022;7.604;2023-04-01T04:59:30;0.87;;;0.40;;
41343;SDS011;27089;50.022;7.604;2023-04-01T05:01:57;1.13;;;0.30;;
41343;SDS011;27089;50.022;7.604;2023-04-01T05:04:24;2.93;;;0.60;;
41343;SDS011;27089;50.022;7.604;2023-04-01T05:06:51;3.97;;;0.60;;
41343;SDS011;27089;50.022;7.604;2023-04-01T05:09:18;1.03;;;0.40;;
41343;SDS011;27089;50.022;7.604;2023-04-01T05:11:45;0.50;;;0.30;;
41343;SDS011;27089;50.022;7.604;2023-04-01T05:14:14;1.03;;;0.50;;
41343;SDS011;27089;50.022;7.604;2023-04-01T05:16:42;0.40;;;0.20;;
41343;SDS011;27089;50.022;7.604;2023-04-01T05:19:08;1.67;;;0.30;;
41343;SDS011;27089;50.022;7.604;2023-04-01T05:21:35;1.63;;;0.40;;
41343;SDS011;27089;50.022;7.604;2023-04-01T05:24:03;2.40;;;0.80;;
41343;SDS011;27089;50.022;7.604;2023-04-01T05:26:35;2.10;;;1.50;;
41343;SDS011;27089;50.022;7.604;2023-04-01T05:29:02;1.73;;;0.63;;
41343;SDS011;27089;50.022;7.604;2023-04-01T05:31:31;0.90;;;0.60;;
41343;SDS011;27089;50.022;7.604;2023-04-01T05:33:58;2.90;;;1.90;;
41343;SDS011;27089;50.022;7.604;2023-04-01T05:36:25;1.33;;;0.80;;
41343;SDS011;27089;50.022;7.604;2023-04-01T05:38:54;0.90;;;0.70;;
41343;SDS011;27089;50.022;7.604;2023-04-01T05:41:21;1.43;;;0.70;;
41343;SDS011;27089;50.022;7.604;2023-04-01T05:43:48;1.67;;;1.03;;
41343;SDS011;27089;50.022;7.604;2023-04-01T05:46:15;0.83;;;0.40;;
41343;SDS011;27089;50.022;7.604;2023-04-01T05:48:43;0.70;;;0.40;;
41343;SDS011;27089;50.022;7.604;2023-04-01T05:51:14;0.93;;;0.70;;
41343;SDS011;27089;50.022;7.604;2023-04-01T05:53:44;1.23;;;0.40;;
41343;SDS011;27089;50.022;7.604;2023-04-01T05:56:11;0.50;;;0.40;;
41343;SDS011;27089;50.022;7.604;2023-04-01T05:58:38;1.80;;;0.30;;
41343;SDS011;27089;50.022;7.604;2023-04-01T06:01:06;1.13;;;0.30;;
41343;SDS011;27089;50.022;7.604;2023-04-01T06:03:34;2.37;;;1.50;;
41343;SDS011;27089;50.022;7.604;2023-04-01T06:06:05;0.70;;;0.40;;
41343;SDS011;27089;50.022;7.604;2023-04-01T06:08:38;1.67;;;0.33;;
41343;SDS011;27089;50.022;7.604;2023-04-01T06:11:10;1.60;;;0.90;;
41343;SDS011;27089;50.022;7.604;2023-04-01T06:13:49;1.20;;;0.77;;
41343;SDS011;27089;50.022;7.604;2023-04-01T06:16:32;0.33;;;0.30;;
41343;SDS011;27089;50.022;7.604;2023-04-01T06:19:08;0.27;;;0.23;;
41343;SDS011;27089;50.022;7.604;2023-04-01T06:21:56;0.80;;;0.37;;
41343;SDS011;27089;50.022;7.604;2023-04-01T06:24:46;0.83;;;0.40;;
41343;SDS011;27089;50.022;7.604;2023-04-01T06:27:48;1.20;;;0.40;;
41343;SDS011;27089;50.022;7.604;2023-04-01T06:30:33;0.50;;;0.40;;
41343;SDS011;27089;50.022;7.604;2023-04-01T06:33:10;1.00;;;0.40;;
41343;SDS011;27089;50.022;7.604;2023-04-01T06:36:06;1.33;;;0.40;;
41343;SDS011;27089;50.022;7.604;2023-04-01T06:38:54;0.80;;;0.43;;
41343;SDS011;27089;50.022;7.604;2023-04-01T06:41:38;0.80;;;0.40;;
41343;SDS011;27089;50.022;7.604;2023-04-01T06:44:28;1.20;;;0.50;;
41343;SDS011;27089;50.022;7.604;2023-04-01T06:47:06;1.13;;;0.70;;
41343;SDS011;27089;50.022;7.604;2023-04-01T06:49:50;2.10;;;0.40;;
41343;SDS011;27089;50.022;7.604;2023-04-01T06:52:23;0.77;;;0.43;;
41343;SDS011;27089;50.022;7.604;2023-04-01T06:54:58;0.27;;;0.27;;
41343;SDS011;27089;50.022;7.604;2023-04-01T06:57:38;0.47;;;0.40;;
41343;SDS011;27089;50.022;7.604;2023-04-01T07:00:12;0.53;;;0.40;;
41343;SDS011;27089;50.022;7.604;2023-04-01T07:02:43;1.07;;;0.40;;
41343;SDS011;27089;50.022;7.604;2023-04-01T07:05:18;0.70;;;0.20;;
41343;SDS011;27089;50.022;7.604;2023-04-01T07:07:47;0.53;;;0.20;;
41343;SDS011;27089;50.022;7.604;2023-04-01T07:10:28;0.20;;;0.20;;
41343;SDS011;27089;50.022;7.604;2023-04-01T07:13:02;1.20;;;0.40;;
41343;SDS011;27089;50.022;7.604;2023-04-01T07:15:36;0.80;;;0.13;;
41343;SDS011;27089;50.022;7.604;2023-04-01T07:18:09;0.93;;;0.30;;
41343;SDS011;27089;50.022;7.604;2023-04-01T07:20:41;0.20;;;0.20;;
41343;SDS011;27089;50.022;7.604;2023-04-01T07:23:10;0.30;;;0.30;;
41343;SDS011;27089;50.022;7.604;2023-04-01T07:25:45;0.17;;;0.13;;
41343;SDS011;27089;50.022;7.604;2023-04-01T07:28:18;0.77;;;0.30;;
41343;SDS011;27089;50.022;7.604;2023-04-01T07:30:48;1.50;;;0.50;;
41343;SDS011;27089;50.022;7.604;2023-04-01T07:33:25;0.87;;;0.30;;
41343;SDS011;27089;50.022;7.604;2023-04-01T07:36:00;0.30;;;0.20;;
41343;SDS011;27089;50.022;7.604;2023-04-01T07:38:34;0.90;;;0.20;;
41343;SDS011;27089;50.022;7.604;2023-04-01T07:41:12;0.33;;;0.30;;
41343;SDS011;27089;50.022;7.604;2023-04-01T07:43:52;0.73;;;0.40;;
41343;SDS011;27089;50.022;7.604;2023-04-01T07:46:33;0.30;;;0.20;;
41343;SDS011;27089;50.022;7.604;2023-04-01T07:49:11;0.20;;;0.20;;
41343;SDS011;27089;50.022;7.604;2023-04-01T07:51:45;1.07;;;0.30;;
41343;SDS011;27089;50.022;7.604;2023-04-01T07:54:19;1.00;;;0.60;;
41343;SDS011;27089;50.022;7.604;2023-04-01T07:56:55;0.83;;;0.40;;
41343;SDS011;27089;50.022;7.604;2023-04-01T07:59:29;0.43;;;0.30;;
41343;SDS011;27089;50.022;7.604;2023-04-01T08:02:02;1.27;;;0.30;;
41343;SDS011;27089;50.022;7.604;2023-04-01T08:04:41;0.40;;;0.20;;
41343;SDS011;27089;50.022;7.604;2023-04-01T08:07:20;1.83;;;1.00;;
41343;SDS011;27089;50.022;7.604;2023-04-01T08:09:51;3.23;;;2.70;;
41343;SDS011;27089;50.022;7.604;2023-04-01T08:12:30;1.70;;;1.40;;
41343;SDS011;27089;50.022;7.604;2023-04-01T08:15:10;5.30;;;3.30;;
41343;SDS011;27089;50.022;7.604;2023-04-01T08:17:43;7.90;;;5.63;;
41343;SDS011;27089;50.022;7.604;2023-04-01T08:20:21;2.33;;;1.70;;
41343;SDS011;27089;50.022;7.604;2023-04-01T08:22:57;1.87;;;1.37;;
41343;SDS011;27089;50.022;7.604;2023-04-01T08:25:27;5.17;;;3.20;;
41343;SDS011;27089;50.022;7.604;2023-04-01T08:27:59;13.87;;;7.53;;
41343;SDS011;27089;50.022;7.604;2023-04-01T08:30:38;6.77;;;4.00;;
41343;SDS011;27089;50.022;7.604;2023-04-01T08:33:11;11.53;;;8.47;;
41343;SDS011;27089;50.022;7.604;2023-04-01T08:35:42;14.80;;;9.17;;
41343;SDS011;27089;50.022;7.604;2023-04-01T08:38:17;43.67;;;28.27;;
41343;SDS011;27089;50.022;7.604;2023-04-01T08:43:46;7.93;;;6.17;;
41343;SDS011;27089;50.022;7.604;2023-04-01T08:46:39;4.50;;;3.00;;
41343;SDS011;27089;50.022;7.604;2023-04-01T08:49:27;2.17;;;1.27;;
41343;SDS011;27089;50.022;7.604;2023-04-01T08:52:14;3.40;;;3.10;;
41343;SDS011;27089;50.022;7.604;2023-04-01T08:57:56;5.10;;;4.37;;
41343;SDS011;27089;50.022;7.604;2023-04-01T09:00:37;4.73;;;4.10;;
41343;SDS011;27089;50.022;7.604;2023-04-01T09:03:23;1.87;;;1.77;;
41343;SDS011;27089;50.022;7.604;2023-04-01T09:06:12;1.10;;;1.00;;
41343;SDS011;27089;50.022;7.604;2023-04-01T09:09:03;1.33;;;1.23;;
41343;SDS011;27089;50.022;7.604;2023-04-01T09:12:17;1.97;;;1.70;;
41343;SDS011;27089;50.022;7.604;2023-04-01T09:15:16;2.27;;;2.07;;
41343;SDS011;27089;50.022;7.604;2023-04-01T09:18:07;10.10;;;8.93;;
41343;SDS011;27089;50.022;7.604;2023-04-01T09:20:43;7.00;;;6.40;;
41343;SDS011;27089;50.022;7.604;2023-04-01T09:23:24;2.40;;;1.90;;
41343;SDS011;27089;50.022;7.604;2023-04-01T09:26:27;4.70;;;3.83;;
41343;SDS011;27089;50.022;7.604;2023-04-01T09:29:16;1.80;;;1.67;;
41343;SDS011;27089;50.022;7.604;2023-04-01T09:31:56;1.20;;;1.10;;
41343;SDS011;27089;50.022;7.604;2023-04-01T09:34:54;1.70;;;1.60;;
41343;SDS011;27089;50.022;7.604;2023-04-01T09:37:26;1.13;;;0.70;;
41343;SDS011;27089;50.022;7.604;2023-04-01T09:40:09;0.50;;;0.50;;
41343;SDS011;27089;50.022;7.604;2023-04-01T09:42:44;0.80;;;0.60;;
41343;SDS011;27089;50.022;7.604;2023-04-01T09:45:21;0.27;;;0.27;;
41343;SDS011;27089;50.022;7.604;2023-04-01T09:48:01;0.20;;;0.20;;
41343;SDS011;27089;50.022;7.604;2023-04-01T09:50:38;0.13;;;0.13;;
41343;SDS011;27089;50.022;7.604;2023-04-01T09:53:14;0.57;;;0.30;;
41343;SDS011;27089;50.022;7.604;2023-04-01T09:56:03;0.93;;;0.20;;
41343;SDS011;27089;50.022;7.604;2023-04-01T09:59:06;0.60;;;0.50;;
41343;SDS011;27089;50.022;7.604;2023-04-01T10:11:15;4.40;;;2.87;;
41343;SDS011;27089;50.022;7.604;2023-04-01T10:14:16;20.80;;;13.30;;
41343;SDS011;27089;50.022;7.604;2023-04-01T10:17:08;21.10;;;14.00;;
41343;SDS011;27089;50.022;7.604;2023-04-01T10:25:58;4.80;;;3.27;;
41343;SDS011;27089;50.022;7.604;2023-04-01T10:38:09;4.53;;;3.40;;
41343;SDS011;27089;50.022;7.604;2023-04-01T10:41:19;8.17;;;5.40;;
41343;SDS011;27089;50.022;7.604;2023-04-01T10:44:11;4.63;;;3.37;;
41343;SDS011;27089;50.022;7.604;2023-04-01T10:47:09;5.73;;;3.57;;
41343;SDS011;27089;50.022;7.604;2023-04-01T10:50:14;3.83;;;2.87;;
41343;SDS011;27089;50.022;7.604;2023-04-01T10:53:05;2.90;;;2.20;;
41343;SDS011;27089;50.022;7.604;2023-04-01T11:05:35;5.47;;;2.97;;
41343;SDS011;27089;50.022;7.604;2023-04-01T11:18:06;11.63;;;5.97;;
41343;SDS011;27089;50.022;7.604;2023-04-01T11:21:04;15.97;;;8.17;;
41343;SDS011;27089;50.022;7.604;2023-04-01T11:24:13;7.57;;;4.87;;
41343;SDS011;27089;50.022;7.604;2023-04-01T11:26:56;5.97;;;4.50;;
41343;SDS011;27089;50.022;7.604;2023-04-01T11:29:39;10.93;;;7.23;;
41343;SDS011;27089;50.022;7.604;2023-04-01T11:32:29;9.23;;;5.13;;
41343;SDS011;27089;50.022;7.604;2023-04-01T11:35:22;10.00;;;6.00;;
41343;SDS011;27089;50.022;7.604;2023-04-01T11:38:00;11.23;;;6.80;;
41343;SDS011;27089;50.022;7.604;2023-04-01T11:40:37;4.30;;;3.10;;
41343;SDS011;27089;50.022;7.604;2023-04-01T11:43:11;2.40;;;1.80;;
41343;SDS011;27089;50.022;7.604;2023-04-01T11:45:48;4.17;;;1.67;;
41343;SDS011;27089;50.022;7.604;2023-04-01T11:48:25;3.43;;;2.47;;
41343;SDS011;27089;50.022;7.604;2023-04-01T11:51:24;0.80;;;0.80;;
41343;SDS011;27089;50.022;7.604;2023-04-01T11:54:04;2.17;;;1.47;;
41343;SDS011;27089;50.022;7.604;2023-04-01T11:56:45;1.63;;;1.20;;
41343;SDS011;27089;50.022;7.604;2023-04-01T12:02:34;5.40;;;3.73;;
41343;SDS011;27089;50.022;7.604;2023-04-01T12:05:18;1.63;;;1.10;;
41343;SDS011;27089;50.022;7.604;2023-04-01T12:08:08;1.17;;;1.00;;
41343;SDS011;27089;50.022;7.604;2023-04-01T12:10:47;1.10;;;0.87;;
41343;SDS011;27089;50.022;7.604;2023-04-01T12:13:28;1.97;;;1.50;;
41343;SDS011;27089;50.022;7.604;2023-04-01T12:19:09;1.03;;;0.93;;
41343;SDS011;27089;50.022;7.604;2023-04-01T12:21:45;1.03;;;0.93;;
41343;SDS011;27089;50.022;7.604;2023-04-01T12:33:06;1.77;;;1.57;;
41343;SDS011;27089;50.022;7.604;2023-04-01T12:35:55;4.67;;;3.30;;
41343;SDS011;27089;50.022;7.604;2023-04-01T12:38:31;2.73;;;2.53;;
41343;SDS011;27089;50.022;7.604;2023-04-01T12:41:11;0.70;;;0.70;;
41343;SDS011;27089;50.022;7.604;2023-04-01T12:43:53;2.53;;;2.33;;
41343;SDS011;27089;50.022;7.604;2023-04-01T12:46:52;4.90;;;4.50;;
41343;SDS011;27089;50.022;7.604;2023-04-01T12:49:33;2.70;;;1.40;;
41343;SDS011;27089;50.022;7.604;2023-04-01T12:52:19;1.43;;;0.90;;
41343;SDS011;27089;50.022;7.604;2023-04-01T12:54:59;6.97;;;5.27;;
41343;SDS011;27089;50.022;7.604;2023-04-01T12:57:52;5.60;;;3.87;;
41343;SDS011;27089;50.022;7.604;2023-04-01T13:00:38;2.60;;;2.10;;
41343;SDS011;27089;50.022;7.604;2023-04-01T13:03:16;3.97;;;3.00;;
41343;SDS011;27089;50.022;7.604;2023-04-01T13:05:56;4.33;;;2.97;;
41343;SDS011;27089;50.022;7.604;2023-04-01T13:08:46;3.57;;;3.27;;
41343;SDS011;27089;50.022;7.604;2023-04-01T13:11:19;3.87;;;3.43;;
41343;SDS011;27089;50.022;7.604;2023-04-01T13:14:00;2.17;;;1.70;;
41343;SDS011;27089;50.022;7.604;2023-04-01T13:16:46;1.70;;;1.60;;
41343;SDS011;27089;50.022;7.604;2023-04-01T13:19:23;1.80;;;1.70;;
41343;SDS011;27089;50.022;7.604;2023-04-01T13:21:57;1.30;;;1.20;;
41343;SDS011;27089;50.022;7.604;2023-04-01T13:24:37;0.53;;;0.53;;
41343;SDS011;27089;50.022;7.604;2023-04-01T13:27:12;0.90;;;0.57;;
41343;SDS011;27089;50.022;7.604;2023-04-01T13:29:46;0.60;;;0.40;;
41343;SDS011;27089;50.022;7.604;2023-04-01T13:32:26;0.40;;;0.40;;
41343;SDS011;27089;50.022;7.604;2023-04-01T13:35:05;0.30;;;0.30;;
41343;SDS011;27089;50.022;7.604;2023-04-01T13:37:46;0.80;;;0.53;;
41343;SDS011;27089;50.022;7.604;2023-04-01T13:40:26;0.40;;;0.40;;
41343;SDS011;27089;50.022;7.604;2023-04-01T13:43:08;0.30;;;0.30;;
41343;SDS011;27089;50.022;7.604;2023-04-01T13:45:46;0.83;;;0.43;;
41343;SDS011;27089;50.022;7.604;2023-04-01T13:48:27;0.53;;;0.53;;
41343;SDS011;27089;50.022;7.604;2023-04-01T13:51:13;0.80;;;0.50;;
41343;SDS011;27089;50.022;7.604;2023-04-01T13:54:03;3.03;;;0.53;;
41343;SDS011;27089;50.022;7.604;2023-04-01T13:57:00;1.23;;;0.80;;
41343;SDS011;27089;50.022;7.604;2023-04-01T13:59:46;10.77;;;7.10;;
41343;SDS011;27089;50.022;7.604;2023-04-01T14:02:39;27.57;;;14.27;;
41343;SDS011;27089;50.022;7.604;2023-04-01T14:05:22;2.40;;;1.83;;
41343;SDS011;27089;50.022;7.604;2023-04-01T14:07:56;1.23;;;1.00;;
41343;SDS011;27089;50.022;7.604;2023-04-01T14:10:31;0.63;;;0.63;;
41343;SDS011;27089;50.022;7.604;2023-04-01T14:13:07;0.40;;;0.40;;
41343;SDS011;27089;50.022;7.604;2023-04-01T14:18:49;1.73;;;1.63;;
41343;SDS011;27089;50.022;7.604;2023-04-01T14:21:32;3.57;;;3.23;;
41343;SDS011;27089;50.022;7.604;2023-04-01T14:24:08;2.37;;;2.17;;
41343;SDS011;27089;50.022;7.604;2023-04-01T14:26:59;1.30;;;1.20;;
41343;SDS011;27089;50.022;7.604;2023-04-01T14:29:42;0.47;;;0.47;;
41343;SDS011;27089;50.022;7.604;2023-04-01T14:32:24;0.60;;;0.60;;
41343;SDS011;27089;50.022;7.604;2023-04-01T14:35:09;0.70;;;0.70;;
41343;SDS011;27089;50.022;7.604;2023-04-01T14:37:55;1.60;;;0.83;;
41343;SDS011;27089;50.022;7.604;2023-04-01T14:40:34;0.60;;;0.50;;
41343;SDS011;27089;50.022;7.604;2023-04-01T14:49:15;1.73;;;1.43;;
41343;SDS011;27089;50.022;7.604;2023-04-01T14:51:50;0.87;;;0.83;;
41343;SDS011;27089;50.022;7.604;2023-04-01T14:54:19;1.33;;;0.90;;
41343;SDS011;27089;50.022;7.604;2023-04-01T14:57:01;0.50;;;0.50;;
41343;SDS011;27089;50.022;7.604;2023-04-01T14:59:38;0.53;;;0.53;;
41343;SDS011;27089;50.022;7.604;2023-04-01T15:02:09;0.53;;;0.50;;
41343;SDS011;27089;50.022;7.604;2023-04-01T15:04:54;0.70;;;0.70;;
41343;SDS011;27089;50.022;7.604;2023-04-01T15:07:38;1.40;;;1.20;;
41343;SDS011;27089;50.022;7.604;2023-04-01T15:10:24;1.77;;;0.70;;
41343;SDS011;27089;50.022;7.604;2023-04-01T15:13:15;0.80;;;0.80;;
41343;SDS011;27089;50.022;7.604;2023-04-01T15:15:57;1.20;;;1.10;;
41343;SDS011;27089;50.022;7.604;2023-04-01T15:18:37;1.30;;;1.20;;
41343;SDS011;27089;50.022;7.604;2023-04-01T15:21:13;1.30;;;1.20;;
41343;SDS011;27089;50.022;7.604;2023-04-01T15:24:03;1.20;;;1.10;;
41343;SDS011;27089;50.022;7.604;2023-04-01T15:29:36;0.80;;;0.60;;
41343;SDS011;27089;50.022;7.604;2023-04-01T15:32:14;0.73;;;0.40;;
41343;SDS011;27089;50.022;7.604;2023-04-01T15:34:46;0.40;;;0.40;;
41343;SDS011;27089;50.022;7.604;2023-04-01T15:37:19;1.20;;;1.00;;
41343;SDS011;27089;50.022;7.604;2023-04-01T15:39:56;22.90;;;11.47;;
41343;SDS011;27089;50.022;7.604;2023-04-01T15:42:39;16.50;;;9.37;;
41343;SDS011;27089;50.022;7.604;2023-04-01T15:45:25;13.23;;;7.90;;
41343;SDS011;27089;50.022;7.604;2023-04-01T15:48:01;18.40;;;13.20;;
41343;SDS011;27089;50.022;7.604;2023-04-01T15:50:50;4.70;;;3.80;;
41343;SDS011;27089;50.022;7.604;2023-04-01T15:53:30;9.77;;;7.63;;
41343;SDS011;27089;50.022;7.604;2023-04-01T15:56:13;11.00;;;7.87;;
41343;SDS011;27089;50.022;7.604;2023-04-01T15:58:51;7.40;;;5.07;;
41343;SDS011;27089;50.022;7.604;2023-04-01T16:01:31;6.47;;;5.17;;
41343;SDS011;27089;50.022;7.604;2023-04-01T16:04:07;7.10;;;5.97;;
41343;SDS011;27089;50.022;7.604;2023-04-01T16:07:02;7.23;;;5.90;;
41343;SDS011;27089;50.022;7.604;2023-04-01T16:09:39;6.90;;;5.53;;
41343;SDS011;27089;50.022;7.604;2023-04-01T16:12:22;7.67;;;6.40;;
41343;SDS011;27089;50.022;7.604;2023-04-01T16:15:03;5.20;;;4.60;;
41343;SDS011;27089;50.022;7.604;2023-04-01T16:17:50;2.67;;;2.33;;
41343;SDS011;27089;50.022;7.604;2023-04-01T16:20:35;4.80;;;3.83;;
41343;SDS011;27089;50.022;7.604;2023-04-01T16:23:13;3.93;;;3.53;;
41343;SDS011;27089;50.022;7.604;2023-04-01T16:25:49;2.60;;;2.27;;
41343;SDS011;27089;50.022;7.604;2023-04-01T16:28:27;2.60;;;2.00;;
41343;SDS011;27089;50.022;7.604;2023-04-01T16:30:58;4.33;;;3.23;;
41343;SDS011;27089;50.022;7.604;2023-04-01T16:33:32;6.50;;;5.13;;
41343;SDS011;27089;50.022;7.604;2023-04-01T16:36:09;3.40;;;2.50;;
41343;SDS011;27089;50.022;7.604;2023-04-01T16:38:46;3.37;;;2.70;;
41343;SDS011;27089;50.022;7.604;2023-04-01T16:41:19;1.87;;;1.30;;
41343;SDS011;27089;50.022;7.604;2023-04-01T16:43:55;2.50;;;1.50;;
41343;SDS011;27089;50.022;7.604;2023-04-01T16:46:28;1.73;;;1.63;;
41343;SDS011;27089;50.022;7.604;2023-04-01T16:49:02;1.50;;;1.30;;
41343;SDS011;27089;50.022;7.604;2023-04-01T16:51:44;0.93;;;0.80;;
41343;SDS011;27089;50.022;7.604;2023-04-01T16:54:17;1.50;;;1.40;;
41343;SDS011;27089;50.022;7.604;2023-04-01T16:57:02;1.73;;;0.80;;
41343;SDS011;27089;50.022;7.604;2023-04-01T16:59:44;1.60;;;1.50;;